Portada
METAR-TAF:

METAR-TAF

Aeropuertos :

Mahshahr, Irán

latitud: 30-33-23N, longitud: 049-09-07E, altitud: 2 m

Observación

El informe se hizo hace 39 minutos, a las 03:00 UTC
Viento 4 kt del norte
Temperatura 10°C
Humedad 82%
Presión 1015 hPa
Visibilidad: 7000 m

METAR: OIAM 280300Z 36004KT 7000 NSC 10/07 Q1015

Hora: 07:09 (03:39 UTC)


TAF: falta

Observaciones y pronósticos meteorológicos de más de 4000 aeropuertos (mensajes METAR y TAF).

Los puntos amarillos y rojos representan las estaciones disponibles.

Ponga el ratón en el punto deseado para ver el nombre de la estación.

Haga clic para ver las observaciones y los pronósticos meteorológicos.

Para cambiar el mapa : haga clic en los botones verdes con una cruz de color negro para hacer un zoom, en el botón verde con un guión para alejar o en las flechas verdes para mapas adyacentes.


METAR-TAF: